sensor_id;sensor_type;location;lat;lon;timestamp;pressure;altitude;pressure_sealevel;temperature;humidity
69528;BME280;57136;51.986;4.468;2023-03-20T00:01:19;102041.69;;;8.30;100.00
69528;BME280;57136;51.986;4.468;2023-03-20T00:03:45;102038.91;;;8.24;100.00
69528;BME280;57136;51.986;4.468;2023-03-20T00:06:19;102043.06;;;8.19;100.00
69528;BME280;57136;51.986;4.468;2023-03-20T00:08:46;102049.72;;;8.10;100.00
69528;BME280;57136;51.986;4.468;2023-03-20T00:13:51;102044.66;;;7.89;100.00
69528;BME280;57136;51.986;4.468;2023-03-20T00:16:16;102059.94;;;7.80;100.00
69528;BME280;57136;51.986;4.468;2023-03-20T00:18:42;102065.63;;;7.71;100.00
69528;BME280;57136;51.986;4.468;2023-03-20T00:21:15;102074.38;;;7.73;100.00
69528;BME280;57136;51.986;4.468;2023-03-20T00:23:41;102076.25;;;7.77;100.00
69528;BME280;57136;51.986;4.468;2023-03-20T00:26:14;102087.09;;;7.90;100.00
69528;BME280;57136;51.986;4.468;2023-03-20T00:28:43;102096.34;;;7.83;100.00
69528;BME280;57136;51.986;4.468;2023-03-20T00:31:25;102081.06;;;7.91;100.00
69528;BME280;57136;51.986;4.468;2023-03-20T00:33:52;102068.47;;;8.02;100.00
69528;BME280;57136;51.986;4.468;2023-03-20T00:36:18;102068.47;;;8.02;100.00
69528;BME280;57136;51.986;4.468;2023-03-20T00:38:43;102064.13;;;8.02;100.00
69528;BME280;57136;51.986;4.468;2023-03-20T00:41:24;102054.56;;;8.01;100.00
69528;BME280;57136;51.986;4.468;2023-03-20T00:43:53;102059.78;;;8.01;100.00
69528;BME280;57136;51.986;4.468;2023-03-20T00:46:19;102068.28;;;7.97;100.00
69528;BME280;57136;51.986;4.468;2023-03-20T00:48:46;102067.16;;;7.89;100.00
69528;BME280;57136;51.986;4.468;2023-03-20T00:51:11;102051.63;;;7.90;100.00
69528;BME280;57136;51.986;4.468;2023-03-20T00:53:37;102039.56;;;7.92;100.00
69528;BME280;57136;51.986;4.468;2023-03-20T00:56:02;102041.38;;;7.95;100.00
69528;BME280;57136;51.986;4.468;2023-03-20T00:58:28;102033.56;;;7.93;100.00
69528;BME280;57136;51.986;4.468;2023-03-20T01:00:53;102035.34;;;7.96;100.00
69528;BME280;57136;51.986;4.468;2023-03-20T01:03:22;102040.47;;;7.93;100.00
69528;BME280;57136;51.986;4.468;2023-03-20T01:05:49;102038.38;;;7.83;100.00
69528;BME280;57136;51.986;4.468;2023-03-20T01:08:22;102028.25;;;7.90;100.00
69528;BME280;57136;51.986;4.468;2023-03-20T01:10:51;102014.66;;;7.98;100.00
69528;BME280;57136;51.986;4.468;2023-03-20T01:13:26;102025.66;;;7.90;100.00
69528;BME280;57136;51.986;4.468;2023-03-20T01:15:52;102046.38;;;7.89;100.00
69528;BME280;57136;51.986;4.468;2023-03-20T01:18:20;102047.22;;;7.88;100.00
69528;BME280;57136;51.986;4.468;2023-03-20T01:20:46;102065.13;;;7.80;100.00
69528;BME280;57136;51.986;4.468;2023-03-20T01:23:12;102077.47;;;7.87;100.00
69528;BME280;57136;51.986;4.468;2023-03-20T01:25:38;102078.25;;;7.85;100.00
69528;BME280;57136;51.986;4.468;2023-03-20T01:28:16;102081.50;;;7.79;100.00
69528;BME280;57136;51.986;4.468;2023-03-20T01:30:42;102092.28;;;7.90;100.00
69528;BME280;57136;51.986;4.468;2023-03-20T01:33:20;102096.34;;;7.83;100.00
69528;BME280;57136;51.986;4.468;2023-03-20T01:35:48;102097.56;;;7.93;100.00
69528;BME280;57136;51.986;4.468;2023-03-20T01:38:25;102089.03;;;7.97;100.00
69528;BME280;57136;51.986;4.468;2023-03-20T01:41:11;102088.22;;;7.98;100.00
69528;BME280;57136;51.986;4.468;2023-03-20T01:43:37;102089.94;;;7.98;100.00
69528;BME280;57136;51.986;4.468;2023-03-20T01:51:29;102075.41;;;7.78;100.00
69528;BME280;57136;51.986;4.468;2023-03-20T01:54:11;102070.94;;;7.99;100.00
69528;BME280;57136;51.986;4.468;2023-03-20T01:56:42;102069.06;;;7.94;100.00
69528;BME280;57136;51.986;4.468;2023-03-20T01:59:35;102067.44;;;7.98;100.00
69528;BME280;57136;51.986;4.468;2023-03-20T02:02:01;102078.06;;;8.04;100.00
69528;BME280;57136;51.986;4.468;2023-03-20T02:04:33;102070.13;;;8.00;100.00
69528;BME280;57136;51.986;4.468;2023-03-20T02:07:02;102067.44;;;7.98;100.00
69528;BME280;57136;51.986;4.468;2023-03-20T02:09:27;102057.59;;;7.88;100.00
69528;BME280;57136;51.986;4.468;2023-03-20T02:11:53;102043.00;;;7.91;100.00
69528;BME280;57136;51.986;4.468;2023-03-20T02:14:19;102038.75;;;7.93;100.00
69528;BME280;57136;51.986;4.468;2023-03-20T02:16:46;102036.00;;;7.89;100.00
69528;BME280;57136;51.986;4.468;2023-03-20T02:27:31;102019.50;;;7.87;100.00
69528;BME280;57136;51.986;4.468;2023-03-20T02:30:17;102016.00;;;7.86;100.00
69528;BME280;57136;51.986;4.468;2023-03-20T02:36:06;102008.41;;;7.67;100.00
69528;BME280;57136;51.986;4.468;2023-03-20T02:48:55;102019.38;;;7.59;100.00
69528;BME280;57136;51.986;4.468;2023-03-20T02:51:36;102025.47;;;7.60;100.00
69528;BME280;57136;51.986;4.468;2023-03-20T03:01:45;102014.53;;;7.69;100.00
69528;BME280;57136;51.986;4.468;2023-03-20T03:04:15;102010.16;;;7.68;100.00
69528;BME280;57136;51.986;4.468;2023-03-20T03:06:43;102001.00;;;7.77;100.00
69528;BME280;57136;51.986;4.468;2023-03-20T03:09:14;102000.97;;;7.76;100.00
69528;BME280;57136;51.986;4.468;2023-03-20T03:11:47;102001.25;;;7.85;100.00
69528;BME280;57136;51.986;4.468;2023-03-20T03:14:35;101998.28;;;7.74;100.00
69528;BME280;57136;51.986;4.468;2023-03-20T03:17:03;101989.69;;;7.75;100.00
69528;BME280;57136;51.986;4.468;2023-03-20T03:19:31;101992.13;;;7.71;100.00
69528;BME280;57136;51.986;4.468;2023-03-20T03:21:59;101993.22;;;7.77;100.00
69528;BME280;57136;51.986;4.468;2023-03-20T03:26:51;101983.81;;;7.81;100.00
69528;BME280;57136;51.986;4.468;2023-03-20T03:29:17;101976.41;;;7.66;100.00
69528;BME280;57136;51.986;4.468;2023-03-20T03:31:44;101975.91;;;7.52;100.00
69528;BME280;57136;51.986;4.468;2023-03-20T03:34:13;101965.63;;;7.55;100.00
69528;BME280;57136;51.986;4.468;2023-03-20T03:36:57;101974.03;;;7.48;100.00
69528;BME280;57136;51.986;4.468;2023-03-20T03:39:53;101974.16;;;7.51;100.00
69528;BME280;57136;51.986;4.468;2023-03-20T03:42:38;101971.81;;;7.59;100.00
69528;BME280;57136;51.986;4.468;2023-03-20T03:45:13;101973.25;;;7.50;100.00
69528;BME280;57136;51.986;4.468;2023-03-20T03:47:45;101964.75;;;7.55;100.00
69528;BME280;57136;51.986;4.468;2023-03-20T03:50:20;101968.91;;;7.49;100.00
69528;BME280;57136;51.986;4.468;2023-03-20T03:52:49;101956.00;;;7.51;100.00
69528;BME280;57136;51.986;4.468;2023-03-20T03:55:29;101960.13;;;7.46;100.00
69528;BME280;57136;51.986;4.468;2023-03-20T03:58:03;101958.59;;;7.27;100.00
69528;BME280;57136;51.986;4.468;2023-03-20T04:00:39;101959.47;;;7.52;100.00
69528;BME280;57136;51.986;4.468;2023-03-20T04:03:05;101949.88;;;7.49;100.00
69528;BME280;57136;51.986;4.468;2023-03-20T04:05:33;101943.56;;;7.42;100.00
69528;BME280;57136;51.986;4.468;2023-03-20T04:08:02;101945.66;;;7.28;100.00
69528;BME280;57136;51.986;4.468;2023-03-20T04:10:28;101946.00;;;7.38;100.00
69528;BME280;57136;51.986;4.468;2023-03-20T04:12:53;101949.50;;;7.38;100.00
69528;BME280;57136;51.986;4.468;2023-03-20T04:15:19;101938.91;;;7.32;100.00
69528;BME280;57136;51.986;4.468;2023-03-20T04:17:46;101949.78;;;7.47;100.00
69528;BME280;57136;51.986;4.468;2023-03-20T04:20:13;101958.41;;;7.46;100.00
69528;BME280;57136;51.986;4.468;2023-03-20T04:22:38;101957.47;;;7.44;100.00
69528;BME280;57136;51.986;4.468;2023-03-20T04:25:06;101966.63;;;7.34;100.00
69528;BME280;57136;51.986;4.468;2023-03-20T04:27:32;101960.88;;;7.43;100.00
69528;BME280;57136;51.986;4.468;2023-03-20T04:29:57;101965.34;;;7.47;100.00
69528;BME280;57136;51.986;4.468;2023-03-20T04:32:22;101962.84;;;7.49;100.00
69528;BME280;57136;51.986;4.468;2023-03-20T04:34:48;101962.31;;;7.59;100.00
69528;BME280;57136;51.986;4.468;2023-03-20T04:37:13;101956.47;;;7.65;100.00
69528;BME280;57136;51.986;4.468;2023-03-20T04:39:38;101954.63;;;7.62;100.00
69528;BME280;57136;51.986;4.468;2023-03-20T04:42:06;101946.63;;;7.56;100.00
69528;BME280;57136;51.986;4.468;2023-03-20T04:44:32;101941.28;;;7.52;100.00
69528;BME280;57136;51.986;4.468;2023-03-20T04:46:58;101936.59;;;7.41;100.00
69528;BME280;57136;51.986;4.468;2023-03-20T04:49:23;101932.47;;;7.46;100.00
69528;BME280;57136;51.986;4.468;2023-03-20T04:51:49;101919.59;;;7.49;100.00
69528;BME280;57136;51.986;4.468;2023-03-20T04:54:14;101926.34;;;7.44;100.00
69528;BME280;57136;51.986;4.468;2023-03-20T04:56:40;101917.22;;;7.30;100.00
69528;BME280;57136;51.986;4.468;2023-03-20T04:59:05;101914.53;;;7.53;100.00
69528;BME280;57136;51.986;4.468;2023-03-20T05:01:31;101921.22;;;7.46;100.00
69528;BME280;57136;51.986;4.468;2023-03-20T05:03:56;101917.13;;;7.53;100.00
69528;BME280;57136;51.986;4.468;2023-03-20T05:06:28;101906.94;;;7.33;100.00
69528;BME280;57136;51.986;4.468;2023-03-20T05:08:53;101912.31;;;7.39;100.00
69528;BME280;57136;51.986;4.468;2023-03-20T05:11:19;101910.06;;;7.48;100.00
69528;BME280;57136;51.986;4.468;2023-03-20T05:13:44;101912.03;;;7.56;100.00
69528;BME280;57136;51.986;4.468;2023-03-20T05:16:10;101921.13;;;7.43;100.00
69528;BME280;57136;51.986;4.468;2023-03-20T05:18:35;101923.19;;;7.53;100.00
69528;BME280;57136;51.986;4.468;2023-03-20T05:21:01;101918.56;;;7.70;100.00
69528;BME280;57136;51.986;4.468;2023-03-20T05:23:26;101923.88;;;7.73;100.00
69528;BME280;57136;51.986;4.468;2023-03-20T05:25:52;101922.31;;;7.78;100.00
69528;BME280;57136;51.986;4.468;2023-03-20T05:28:17;101920.16;;;7.65;100.00
69528;BME280;57136;51.986;4.468;2023-03-20T05:30:43;101923.56;;;7.64;100.00
69528;BME280;57136;51.986;4.468;2023-03-20T05:33:08;101923.41;;;7.59;100.00
69528;BME280;57136;51.986;4.468;2023-03-20T05:35:33;101919.16;;;7.61;100.00
69528;BME280;57136;51.986;4.468;2023-03-20T05:37:59;101927.19;;;7.69;100.00
69528;BME280;57136;51.986;4.468;2023-03-20T05:40:25;101918.84;;;7.78;100.00
69528;BME280;57136;51.986;4.468;2023-03-20T05:42:50;101925.75;;;7.77;100.00
69528;BME280;57136;51.986;4.468;2023-03-20T05:45:17;101927.00;;;7.63;100.00
69528;BME280;57136;51.986;4.468;2023-03-20T05:47:42;101929.75;;;7.68;100.00
69528;BME280;57136;51.986;4.468;2023-03-20T05:50:08;101926.47;;;7.73;100.00
69528;BME280;57136;51.986;4.468;2023-03-20T05:52:34;101925.63;;;7.74;100.00
69528;BME280;57136;51.986;4.468;2023-03-20T05:54:59;101924.81;;;7.75;100.00
69528;BME280;57136;51.986;4.468;2023-03-20T05:57:25;101928.00;;;7.68;100.00
69528;BME280;57136;51.986;4.468;2023-03-20T05:59:51;101937.78;;;7.75;100.00
69528;BME280;57136;51.986;4.468;2023-03-20T06:02:16;101938.31;;;7.91;100.00
69528;BME280;57136;51.986;4.468;2023-03-20T06:04:42;101941.63;;;7.87;100.00
69528;BME280;57136;51.986;4.468;2023-03-20T06:07:08;101939.06;;;7.88;100.00
69528;BME280;57136;51.986;4.468;2023-03-20T06:09:33;101942.59;;;7.64;100.00
69528;BME280;57136;51.986;4.468;2023-03-20T06:11:59;101951.53;;;7.73;100.00
69528;BME280;57136;51.986;4.468;2023-03-20T06:14:24;101953.44;;;7.78;100.00
69528;BME280;57136;51.986;4.468;2023-03-20T06:16:50;101953.69;;;7.60;100.00
69528;BME280;57136;51.986;4.468;2023-03-20T06:19:18;101955.53;;;7.89;100.00
69528;BME280;57136;51.986;4.468;2023-03-20T06:21:43;101956.13;;;7.80;100.00
69528;BME280;57136;51.986;4.468;2023-03-20T06:24:09;101960.16;;;7.98;100.00
69528;BME280;57136;51.986;4.468;2023-03-20T06:26:34;101968.03;;;8.01;100.00
69528;BME280;57136;51.986;4.468;2023-03-20T06:28:59;101968.41;;;8.12;100.00
69528;BME280;57136;51.986;4.468;2023-03-20T06:31:25;101969.13;;;7.82;100.00
69528;BME280;57136;51.986;4.468;2023-03-20T06:33:51;101965.91;;;7.89;100.00
69528;BME280;57136;51.986;4.468;2023-03-20T06:36:16;101967.09;;;7.99;100.00
69528;BME280;57136;51.986;4.468;2023-03-20T06:38:42;101965.50;;;7.76;100.00
69528;BME280;57136;51.986;4.468;2023-03-20T06:41:07;101970.56;;;7.99;100.00
69528;BME280;57136;51.986;4.468;2023-03-20T06:43:33;101972.91;;;7.91;100.00
69528;BME280;57136;51.986;4.468;2023-03-20T06:45:58;101974.44;;;7.85;100.00
69528;BME280;57136;51.986;4.468;2023-03-20T06:48:24;101969.38;;;7.89;100.00
69528;BME280;57136;51.986;4.468;2023-03-20T06:50:50;101973.88;;;7.95;100.00
69528;BME280;57136;51.986;4.468;2023-03-20T06:53:15;101984.72;;;8.09;100.00
69528;BME280;57136;51.986;4.468;2023-03-20T06:55:42;101981.16;;;7.79;100.00
69528;BME280;57136;51.986;4.468;2023-03-20T06:58:07;101979.94;;;7.94;100.00
69528;BME280;57136;51.986;4.468;2023-03-20T07:00:33;101974.91;;;7.99;100.00
69528;BME280;57136;51.986;4.468;2023-03-20T07:02:58;101977.97;;;7.87;100.00
69528;BME280;57136;51.986;4.468;2023-03-20T07:05:25;101979.03;;;7.93;100.00
69528;BME280;57136;51.986;4.468;2023-03-20T07:07:51;101977.50;;;7.99;100.00
69528;BME280;57136;51.986;4.468;2023-03-20T07:10:17;101977.38;;;7.95;100.00
69528;BME280;57136;51.986;4.468;2023-03-20T07:12:42;101985.31;;;8.00;100.00
69528;BME280;57136;51.986;4.468;2023-03-20T07:15:11;101979.50;;;8.07;100.00
69528;BME280;57136;51.986;4.468;2023-03-20T07:17:36;101982.94;;;8.06;100.00
69528;BME280;57136;51.986;4.468;2023-03-20T07:20:03;101986.78;;;8.18;100.00
69528;BME280;57136;51.986;4.468;2023-03-20T07:22:29;101976.53;;;8.22;100.00
69528;BME280;57136;51.986;4.468;2023-03-20T07:24:56;101976.03;;;8.07;100.00
69528;BME280;57136;51.986;4.468;2023-03-20T07:27:22;101981.38;;;8.12;100.00
69528;BME280;57136;51.986;4.468;2023-03-20T07:29:47;101981.47;;;8.15;100.00
69528;BME280;57136;51.986;4.468;2023-03-20T07:32:12;101988.94;;;8.31;100.00
69528;BME280;57136;51.986;4.468;2023-03-20T07:34:38;101991.50;;;8.30;100.00
69528;BME280;57136;51.986;4.468;2023-03-20T07:37:03;101990.44;;;8.24;100.00
69528;BME280;57136;51.986;4.468;2023-03-20T07:39:29;101990.94;;;8.13;100.00
69528;BME280;57136;51.986;4.468;2023-03-20T07:41:54;101993.63;;;8.16;100.00
69528;BME280;57136;51.986;4.468;2023-03-20T07:44:19;101987.91;;;8.00;100.00
69528;BME280;57136;51.986;4.468;2023-03-20T07:46:46;101991.97;;;7.92;100.00
69528;BME280;57136;51.986;4.468;2023-03-20T07:49:12;101988.34;;;7.87;100.00
69528;BME280;57136;51.986;4.468;2023-03-20T07:51:38;101994.75;;;7.98;100.00
69528;BME280;57136;51.986;4.468;2023-03-20T07:54:04;101997.63;;;7.80;100.00
69528;BME280;57136;51.986;4.468;2023-03-20T07:56:29;101997.31;;;7.71;100.00
69528;BME280;57136;51.986;4.468;2023-03-20T07:58:56;101993.34;;;7.82;100.00
69528;BME280;57136;51.986;4.468;2023-03-20T08:01:22;101993.28;;;7.79;100.00
69528;BME280;57136;51.986;4.468;2023-03-20T08:03:47;101992.38;;;7.54;100.00
69528;BME280;57136;51.986;4.468;2023-03-20T08:06:12;101993.69;;;7.67;100.00
69528;BME280;57136;51.986;4.468;2023-03-20T08:08:38;101997.41;;;7.74;100.00
69528;BME280;57136;51.986;4.468;2023-03-20T08:11:03;101997.53;;;7.53;100.00
69528;BME280;57136;51.986;4.468;2023-03-20T08:13:29;101990.75;;;7.56;100.00
69528;BME280;57136;51.986;4.468;2023-03-20T08:15:54;101994.16;;;7.55;100.00
69528;BME280;57136;51.986;4.468;2023-03-20T08:18:19;101996.56;;;7.49;100.00
69528;BME280;57136;51.986;4.468;2023-03-20T08:20:46;101992.09;;;7.45;100.00
69528;BME280;57136;51.986;4.468;2023-03-20T08:23:14;101986.63;;;7.37;100.00
69528;BME280;57136;51.986;4.468;2023-03-20T08:25:40;101992.63;;;7.60;100.00
69528;BME280;57136;51.986;4.468;2023-03-20T08:28:05;101994.03;;;7.76;100.00
69528;BME280;57136;51.986;4.468;2023-03-20T08:30:30;101988.84;;;7.76;100.00
69528;BME280;57136;51.986;4.468;2023-03-20T08:32:56;101984.59;;;7.78;100.00
69528;BME280;57136;51.986;4.468;2023-03-20T08:35:23;101986.31;;;8.04;100.00
69528;BME280;57136;51.986;4.468;2023-03-20T08:37:48;101983.28;;;8.17;100.00
69528;BME280;57136;51.986;4.468;2023-03-20T08:40:13;101984.31;;;8.22;100.00
69528;BME280;57136;51.986;4.468;2023-03-20T08:42:39;101990.13;;;8.15;100.00
69528;BME280;57136;51.986;4.468;2023-03-20T08:45:05;101984.84;;;8.12;100.00
69528;BME280;57136;51.986;4.468;2023-03-20T08:47:31;101985.03;;;8.18;100.00
69528;BME280;57136;51.986;4.468;2023-03-20T08:49:56;101984.00;;;8.13;100.00
69528;BME280;57136;51.986;4.468;2023-03-20T08:52:21;101988.81;;;8.28;100.00
69528;BME280;57136;51.986;4.468;2023-03-20T08:54:47;101981.19;;;8.33;100.00
69528;BME280;57136;51.986;4.468;2023-03-20T08:57:12;101979.09;;;8.21;100.00
69528;BME280;57136;51.986;4.468;2023-03-20T08:59:38;101977.88;;;8.11;100.00
69528;BME280;57136;51.986;4.468;2023-03-20T09:02:03;101979.97;;;8.21;100.00
69528;BME280;57136;51.986;4.468;2023-03-20T09:04:28;101984.91;;;8.41;100.00
69528;BME280;57136;51.986;4.468;2023-03-20T09:06:54;101981.19;;;8.33;100.00
69528;BME280;57136;51.986;4.468;2023-03-20T09:09:20;101979.44;;;8.59;100.00
69528;BME280;57136;51.986;4.468;2023-03-20T09:11:51;101979.63;;;8.65;100.00
69528;BME280;57136;51.986;4.468;2023-03-20T09:14:16;101983.03;;;8.63;100.00
69528;BME280;57136;51.986;4.468;2023-03-20T09:16:42;101971.84;;;8.65;100.00
69528;BME280;57136;51.986;4.468;2023-03-20T09:19:07;101982.50;;;8.47;100.00
69528;BME280;57136;51.986;4.468;2023-03-20T09:21:33;101991.94;;;8.44;100.00
69528;BME280;57136;51.986;4.468;2023-03-20T09:23:58;101985.38;;;8.55;100.00
69528;BME280;57136;51.986;4.468;2023-03-20T09:26:23;101985.81;;;8.42;100.00
69528;BME280;57136;51.986;4.468;2023-03-20T09:28:49;101981.94;;;8.56;100.00
69528;BME280;57136;51.986;4.468;2023-03-20T09:31:14;101978.56;;;8.59;100.00
69528;BME280;57136;51.986;4.468;2023-03-20T09:33:40;101977.84;;;8.63;100.00
69528;BME280;57136;51.986;4.468;2023-03-20T09:36:05;101987.22;;;8.87;100.00
69528;BME280;57136;51.986;4.468;2023-03-20T09:38:32;101976.19;;;8.95;100.00
69528;BME280;57136;51.986;4.468;2023-03-20T09:40:59;101987.13;;;9.14;100.00
69528;BME280;57136;51.986;4.468;2023-03-20T09:43:32;101984.34;;;9.08;100.00
69528;BME280;57136;51.986;4.468;2023-03-20T09:46:18;101980.75;;;9.33;100.00
69528;BME280;57136;51.986;4.468;2023-03-20T09:52:19;101997.06;;;9.27;100.00
69528;BME280;57136;51.986;4.468;2023-03-20T09:54:50;101984.25;;;9.35;100.00
69528;BME280;57136;51.986;4.468;2023-03-20T09:57:23;101990.19;;;9.29;100.00
69528;BME280;57136;51.986;4.468;2023-03-20T09:59:54;101988.06;;;9.16;100.00
69528;BME280;57136;51.986;4.468;2023-03-20T10:02:34;101984.25;;;9.34;100.00
69528;BME280;57136;51.986;4.468;2023-03-20T10:05:02;101983.25;;;9.62;100.00
69528;BME280;57136;51.986;4.468;2023-03-20T10:07:28;101980.31;;;9.50;100.00
69528;BME280;57136;51.986;4.468;2023-03-20T10:09:53;101984.94;;;9.60;100.00
69528;BME280;57136;51.986;4.468;2023-03-20T10:15:12;101979.72;;;9.60;100.00
69528;BME280;57136;51.986;4.468;2023-03-20T10:20:36;101976.44;;;9.34;100.00
69528;BME280;57136;51.986;4.468;2023-03-20T10:23:17;101968.56;;;9.32;100.00
69528;BME280;57136;51.986;4.468;2023-03-20T10:25:49;101968.16;;;9.17;100.00
69528;BME280;57136;51.986;4.468;2023-03-20T10:28:24;101968.03;;;9.44;100.00
69528;BME280;57136;51.986;4.468;2023-03-20T10:41:28;101957.16;;;8.96;100.00
69528;BME280;57136;51.986;4.468;2023-03-20T10:43:57;101957.59;;;9.12;100.00
69528;BME280;57136;51.986;4.468;2023-03-20T10:46:33;101959.59;;;8.90;100.00
69528;BME280;57136;51.986;4.468;2023-03-20T10:49:02;101949.25;;;8.92;100.00
69528;BME280;57136;51.986;4.468;2023-03-20T10:54:14;101941.31;;;9.18;100.00
69528;BME280;57136;51.986;4.468;2023-03-20T10:56:47;101944.03;;;9.22;100.00
69528;BME280;57136;51.986;4.468;2023-03-20T10:59:23;101940.13;;;9.38;100.00
69528;BME280;57136;51.986;4.468;2023-03-20T11:01:49;101942.25;;;9.21;100.00
69528;BME280;57136;51.986;4.468;2023-03-20T11:04:15;101936.03;;;9.16;100.00
69528;BME280;57136;51.986;4.468;2023-03-20T11:06:59;101930.22;;;9.25;100.00
69528;BME280;57136;51.986;4.468;2023-03-20T11:09:27;101933.34;;;9.13;100.00
69528;BME280;57136;51.986;4.468;2023-03-20T11:12:00;101932.13;;;9.31;100.00
69528;BME280;57136;51.986;4.468;2023-03-20T11:14:36;101928.81;;;9.38;100.00
69528;BME280;57136;51.986;4.468;2023-03-20T11:17:03;101923.22;;;9.56;100.00
69528;BME280;57136;51.986;4.468;2023-03-20T11:19:35;101931.31;;;9.67;100.00
69528;BME280;57136;51.986;4.468;2023-03-20T11:22:24;101924.66;;;9.78;100.00
69528;BME280;57136;51.986;4.468;2023-03-20T11:24:57;101925.91;;;9.59;100.00
69528;BME280;57136;51.986;4.468;2023-03-20T11:27:28;101928.91;;;9.41;100.00
69528;BME280;57136;51.986;4.468;2023-03-20T11:29:55;101926.19;;;9.70;100.00
69528;BME280;57136;51.986;4.468;2023-03-20T11:34:56;101925.56;;;9.45;100.00
69528;BME280;57136;51.986;4.468;2023-03-20T11:37:34;101925.88;;;9.57;100.00
69528;BME280;57136;51.986;4.468;2023-03-20T11:40:23;101929.34;;;9.56;100.00
69528;BME280;57136;51.986;4.468;2023-03-20T11:45:35;101922.41;;;9.25;100.00
69528;BME280;57136;51.986;4.468;2023-03-20T11:48:02;101927.13;;;9.38;100.00
69528;BME280;57136;51.986;4.468;2023-03-20T11:52:57;101929.06;;;9.15;100.00
69528;BME280;57136;51.986;4.468;2023-03-20T11:55:32;101933.19;;;9.39;100.00
69528;BME280;57136;51.986;4.468;2023-03-20T11:57:59;101921.44;;;9.21;100.00
69528;BME280;57136;51.986;4.468;2023-03-20T12:00:29;101927.66;;;9.26;100.00
69528;BME280;57136;51.986;4.468;2023-03-20T12:03:00;101924.06;;;9.21;100.00
69528;BME280;57136;51.986;4.468;2023-03-20T12:05:35;101921.00;;;9.36;100.00
69528;BME280;57136;51.986;4.468;2023-03-20T12:08:21;101918.56;;;9.10;100.00
69528;BME280;57136;51.986;4.468;2023-03-20T12:10:58;101915.31;;;9.19;100.00
69528;BME280;57136;51.986;4.468;2023-03-20T12:13:32;101917.19;;;9.25;100.00
69528;BME280;57136;51.986;4.468;2023-03-20T12:16:03;101920.09;;;9.36;100.00
69528;BME280;57136;51.986;4.468;2023-03-20T12:18:48;101917.56;;;9.37;100.00
69528;BME280;57136;51.986;4.468;2023-03-20T12:21:38;101915.31;;;9.19;100.00
69528;BME280;57136;51.986;4.468;2023-03-20T12:24:12;101919.09;;;8.98;100.00
69528;BME280;57136;51.986;4.468;2023-03-20T12:27:16;101909.91;;;8.81;100.00
69528;BME280;57136;51.986;4.468;2023-03-20T12:29:46;101907.84;;;8.99;100.00
69528;BME280;57136;51.986;4.468;2023-03-20T12:32:35;101903.63;;;8.73;100.00
69528;BME280;57136;51.986;4.468;2023-03-20T12:35:15;101898.44;;;8.73;100.00
69528;BME280;57136;51.986;4.468;2023-03-20T12:37:43;101906.66;;;8.88;100.00
69528;BME280;57136;51.986;4.468;2023-03-20T12:40:14;101905.09;;;8.95;100.00
69528;BME280;57136;51.986;4.468;2023-03-20T12:45:52;101899.66;;;8.86;100.00
69528;BME280;57136;51.986;4.468;2023-03-20T12:57:20;101895.63;;;8.97;100.00
69528;BME280;57136;51.986;4.468;2023-03-20T12:59:58;101894.31;;;9.11;100.00
69528;BME280;57136;51.986;4.468;2023-03-20T13:02:46;101887.38;;;9.12;100.00
69528;BME280;57136;51.986;4.468;2023-03-20T13:08:20;101876.03;;;9.08;100.00
69528;BME280;57136;51.986;4.468;2023-03-20T13:11:15;101886.25;;;9.34;100.00
69528;BME280;57136;51.986;4.468;2023-03-20T13:13:53;101881.69;;;9.25;100.00
69528;BME280;57136;51.986;4.468;2023-03-20T13:24:54;101868.69;;;9.25;100.00
69528;BME280;57136;51.986;4.468;2023-03-20T13:27:48;101858.53;;;9.03;100.00
69528;BME280;57136;51.986;4.468;2023-03-20T13:30:38;101865.72;;;9.11;100.00
69528;BME280;57136;51.986;4.468;2023-03-20T13:33:19;101865.03;;;9.19;100.00
69528;BME280;57136;51.986;4.468;2023-03-20T13:35:54;101867.69;;;9.22;100.00
69528;BME280;57136;51.986;4.468;2023-03-20T13:38:23;101867.38;;;9.09;100.00
69528;BME280;57136;51.986;4.468;2023-03-20T13:41:03;101863.13;;;9.13;100.00
69528;BME280;57136;51.986;4.468;2023-03-20T13:48:47;101859.03;;;9.21;100.00
69528;BME280;57136;51.986;4.468;2023-03-20T13:51:28;101859.69;;;9.14;100.00
69528;BME280;57136;51.986;4.468;2023-03-20T13:56:52;101862.44;;;9.19;100.00
69528;BME280;57136;51.986;4.468;2023-03-20T14:00:23;101865.28;;;9.28;100.00
69528;BME280;57136;51.986;4.468;2023-03-20T14:05:17;101857.44;;;8.94;100.00
69528;BME280;57136;51.986;4.468;2023-03-20T14:07:45;101854.13;;;9.00;100.00
69528;BME280;57136;51.986;4.468;2023-03-20T14:15:14;101849.56;;;9.23;100.00
69528;BME280;57136;51.986;4.468;2023-03-20T14:17:43;101847.88;;;9.25;100.00
69528;BME280;57136;51.986;4.468;2023-03-20T14:20:32;101854.31;;;9.08;100.00
69528;BME280;57136;51.986;4.468;2023-03-20T14:22:59;101849.28;;;9.14;100.00
69528;BME280;57136;51.986;4.468;2023-03-20T14:25:27;101846.69;;;9.14;100.00
69528;BME280;57136;51.986;4.468;2023-03-20T14:27:57;101841.06;;;9.31;100.00
69528;BME280;57136;51.986;4.468;2023-03-20T14:41:39;101831.16;;;9.16;100.00
69528;BME280;57136;51.986;4.468;2023-03-20T14:44:25;101836.72;;;9.29;100.00
69528;BME280;57136;51.986;4.468;2023-03-20T14:49:47;101828.59;;;9.52;100.00
69528;BME280;57136;51.986;4.468;2023-03-20T14:54:54;101830.03;;;9.41;100.00
69528;BME280;57136;51.986;4.468;2023-03-20T14:57:45;101829.53;;;9.54;100.00
69528;BME280;57136;51.986;4.468;2023-03-20T15:00:18;101826.94;;;9.56;100.00
69528;BME280;57136;51.986;4.468;2023-03-20T15:02:50;101823.00;;;9.72;100.00
69528;BME280;57136;51.986;4.468;2023-03-20T15:05:27;101822.31;;;9.79;100.00
69528;BME280;57136;51.986;4.468;2023-03-20T15:08:23;101817.72;;;9.69;100.00
69528;BME280;57136;51.986;4.468;2023-03-20T15:10:53;101815.19;;;9.72;100.00